Time;durP1;ratioP1;P1;durP2;ratioP2;P2;SDS_P1;SDS_P2;PMS_P1;PMS_P2;Temp;Humidity;BMP_temperature;BMP_pressure;BME280_temperature;BME280_humidity;BME280_pressure;Samples;Min_cycle;Max_cycle;Signal;HPM_P1;HPM_P2
2021/04/17 00:01:41;;;;;;;8.20;4.95;;;;;;;3.24;75.72;99670.28;5091766;28;20495;-79
2021/04/17 00:04:08;;;;;;;8.13;4.95;;;;;;;3.28;75.39;99668.19;5093984;28;20044;-79
2021/04/17 00:06:35;;;;;;;6.47;4.70;;;;;;;3.35;74.15;99682.81;5093907;28;20573;-79
2021/04/17 00:09:05;;;;;;;8.32;5.47;;;;;;;3.29;74.85;99664.53;5094341;28;20105;-79
2021/04/17 00:11:32;;;;;;;6.25;4.43;;;;;;;3.24;74.82;99659.53;5074725;28;20040;-79
2021/04/17 00:13:58;;;;;;;7.05;4.70;;;;;;;3.33;74.32;99661.44;5095518;28;20047;-79
2021/04/17 00:16:25;;;;;;;5.88;4.85;;;;;;;3.23;75.34;99667.72;5095383;28;20059;-78
2021/04/17 00:18:51;;;;;;;7.10;5.22;;;;;;;3.17;74.70;99648.41;5095986;28;20051;-78
2021/04/17 00:21:18;;;;;;;9.68;5.60;;;;;;;3.22;74.93;99648.03;5096185;28;20048;-79
2021/04/17 00:23:45;;;;;;;8.85;5.47;;;;;;;3.22;74.97;99657.94;5095831;28;20143;-79
2021/04/17 00:26:11;;;;;;;8.30;5.93;;;;;;;3.15;75.36;99649.53;5095440;28;20113;-78
2021/04/17 00:28:38;;;;;;;8.65;5.88;;;;;;;3.12;74.61;99642.56;5095922;28;20052;-78
2021/04/17 00:31:05;;;;;;;6.93;4.72;;;;;;;3.18;74.34;99652.81;5095905;28;20051;-79
2021/04/17 00:33:31;;;;;;;5.43;4.05;;;;;;;3.20;74.11;99644.63;5095578;28;20048;-79
2021/04/17 00:35:57;;;;;;;6.32;4.60;;;;;;;3.06;74.25;99645.75;5092893;28;20080;-79
2021/04/17 00:38:24;;;;;;;6.03;4.45;;;;;;;3.12;74.96;99644.41;5094609;28;20488;-79
2021/04/17 00:40:50;;;;;;;6.80;4.47;;;;;;;3.09;75.28;99647.34;5095237;28;20048;-79
2021/04/17 00:43:18;;;;;;;7.28;4.03;;;;;;;3.09;74.53;99640.13;5095397;28;20048;-79
2021/04/17 00:45:45;;;;;;;7.38;4.60;;;;;;;3.09;74.58;99644.66;5075863;28;20124;-80
2021/04/17 00:48:13;;;;;;;8.45;4.55;;;;;;;3.12;74.04;99639.03;5074909;28;20056;-80
2021/04/17 00:50:39;;;;;;;9.05;4.55;;;;;;;3.07;74.07;99626.00;5075267;28;20127;-80
2021/04/17 00:53:06;;;;;;;7.30;3.97;;;;;;;3.16;74.36;99640.47;5075398;28;20049;-79
2021/04/17 00:55:33;;;;;;;7.25;4.35;;;;;;;2.96;74.77;99617.94;5074555;28;20049;-79
2021/04/17 00:57:59;;;;;;;8.88;4.20;;;;;;;2.93;75.93;99623.56;5075122;28;20052;-79
2021/04/17 01:00:25;;;;;;;6.18;4.13;;;;;;;3.00;75.36;99635.53;5075327;28;20056;-79
2021/04/17 01:03:00;;;;;;;6.40;4.25;;;;;;;2.99;75.68;99631.13;5075125;28;20094;-79
2021/04/17 01:05:30;;;;;;;6.13;3.90;;;;;;;2.83;75.69;99629.69;5076194;28;20098;-79
2021/04/17 01:08:02;;;;;;;8.32;4.55;;;;;;;2.93;75.74;99637.84;5095280;28;20113;-79
2021/04/17 01:10:33;;;;;;;7.28;4.80;;;;;;;2.83;75.62;99621.63;5094407;28;20044;-79
2021/04/17 01:13:00;;;;;;;7.15;4.32;;;;;;;3.02;75.98;99641.59;5078447;28;20528;-79
2021/04/17 01:15:27;;;;;;;6.90;4.78;;;;;;;2.97;75.93;99630.41;5074447;28;20055;-79
2021/04/17 01:17:57;;;;;;;7.00;4.53;;;;;;;2.94;76.51;99638.72;5074344;28;20053;-80
2021/04/17 01:20:32;;;;;;;7.90;5.28;;;;;;;2.93;76.26;99629.78;5074895;28;20060;-79
2021/04/17 01:23:07;;;;;;;8.00;5.32;;;;;;;3.00;75.81;99628.31;5074950;28;20155;-79
2021/04/17 01:26:02;;;;;;;8.27;5.60;;;;;;;2.97;76.64;99639.31;5074079;28;20064;-79
2021/04/17 01:28:31;;;;;;;13.05;7.80;;;;;;;2.96;75.75;99629.53;5040963;28;20053;-79
2021/04/17 01:30:59;;;;;;;9.52;6.30;;;;;;;2.98;75.67;99616.84;5074770;28;20052;-79
2021/04/17 01:33:30;;;;;;;8.57;5.93;;;;;;;3.08;75.05;99624.16;5082323;28;20178;-79
2021/04/17 01:35:57;;;;;;;9.40;6.95;;;;;;;3.10;75.36;99625.75;5093561;28;20079;-79
2021/04/17 01:38:26;;;;;;;9.73;7.20;;;;;;;3.15;75.26;99625.34;5087318;28;20053;-79
2021/04/17 01:40:57;;;;;;;10.93;7.35;;;;;;;3.28;74.68;99625.19;5081536;28;20043;-79
2021/04/17 01:43:26;;;;;;;9.90;6.93;;;;;;;3.23;74.41;99620.19;5094179;28;20523;-79
2021/04/17 01:45:55;;;;;;;10.63;6.90;;;;;;;3.26;75.00;99616.41;5093767;28;20585;-79
2021/04/17 01:48:22;;;;;;;18.02;7.75;;;;;;;3.29;74.17;99613.47;5094156;28;20052;-79
2021/04/17 01:50:50;;;;;;;13.00;7.18;;;;;;;3.24;74.20;99616.53;5094417;28;20075;-79
2021/04/17 01:53:22;;;;;;;10.50;8.02;;;;;;;3.22;74.33;99613.09;5093485;28;20044;-79
2021/04/17 01:55:49;;;;;;;10.18;7.38;;;;;;;3.12;74.59;99602.28;5093879;28;20143;-78
2021/04/17 01:58:22;;;;;;;12.38;7.63;;;;;;;3.31;74.08;99611.50;5094086;28;20052;-78
2021/04/17 02:00:53;;;;;;;12.55;7.57;;;;;;;3.27;74.38;99618.97;5094027;28;20044;-79
2021/04/17 02:03:19;;;;;;;12.55;8.43;;;;;;;3.20;73.69;99601.63;5093925;28;20432;-79
2021/04/17 02:05:47;;;;;;;12.88;7.97;;;;;;;3.25;74.26;99614.69;5093377;28;20461;-78
2021/04/17 02:08:13;;;;;;;14.45;6.78;;;;;;;3.12;74.74;99609.50;5093870;28;20082;-79
2021/04/17 02:10:39;;;;;;;11.05;7.97;;;;;;;3.22;75.08;99612.25;5092069;28;20040;-79
2021/04/17 02:13:07;;;;;;;10.85;7.68;;;;;;;3.16;74.96;99608.25;5094101;28;20052;-79
2021/04/17 02:15:34;;;;;;;10.90;7.82;;;;;;;3.17;75.39;99609.94;5093328;28;20054;-78
2021/04/17 02:18:05;;;;;;;11.35;7.93;;;;;;;3.22;74.77;99610.41;5094001;28;20051;-79
2021/04/17 02:20:35;;;;;;;10.43;7.50;;;;;;;3.19;75.03;99603.47;5094161;28;20044;-79
2021/04/17 02:23:02;;;;;;;;;;;;;;;3.26;74.11;99603.81;5094345;28;20044;-79
2021/04/17 02:25:29;;;;;;;14.32;7.05;;;;;;;3.10;75.11;99598.00;5092928;28;19920;-79
2021/04/17 02:27:56;;;;;;;12.55;7.95;;;;;;;3.23;74.08;99609.44;5094008;28;20411;-79
2021/04/17 02:30:23;;;;;;;11.77;8.13;;;;;;;3.25;73.98;99594.06;5093732;28;20044;-79
2021/04/17 02:32:49;;;;;;;10.35;7.00;;;;;;;3.23;74.45;99601.38;5093485;28;20052;-79
2021/04/17 02:35:17;;;;;;;12.02;7.40;;;;;;;3.15;76.01;99604.72;5072116;28;20480;-79
2021/04/17 02:37:43;;;;;;;11.27;8.23;;;;;;;3.04;75.75;99604.75;5068267;28;20060;-79
2021/04/17 02:40:10;;;;;;;10.25;7.78;;;;;;;3.06;75.30;99599.25;5064837;28;20484;-79
2021/04/17 02:42:36;;;;;;;10.82;6.82;;;;;;;2.99;75.17;99588.16;5093232;28;20113;-79
2021/04/17 02:45:04;;;;;;;9.10;7.00;;;;;;;3.22;73.73;99601.50;5092935;28;20048;-79
2021/04/17 02:47:30;;;;;;;10.55;7.13;;;;;;;3.11;74.31;99597.03;5093166;28;20113;-80
2021/04/17 02:49:56;;;;;;;11.70;7.53;;;;;;;3.18;74.03;99593.69;5092785;28;20040;-79
2021/04/17 02:52:23;;;;;;;12.73;7.55;;;;;;;3.01;74.19;99573.63;5093366;28;20059;-78
2021/04/17 02:54:50;;;;;;;11.90;7.45;;;;;;;2.95;75.09;99579.50;5092405;28;20056;-79
2021/04/17 02:57:16;;;;;;;10.43;7.18;;;;;;;3.01;74.81;99580.78;5093175;28;20051;-79
2021/04/17 02:59:42;;;;;;;14.88;7.93;;;;;;;2.99;74.97;99580.09;5092913;28;20052;-79
2021/04/17 03:02:08;;;;;;;10.57;7.93;;;;;;;3.11;75.22;99587.13;5093146;28;20426;-79
2021/04/17 03:04:35;;;;;;;9.52;6.68;;;;;;;3.11;74.82;99586.28;5092567;28;20055;-79
2021/04/17 03:07:01;;;;;;;11.85;7.97;;;;;;;2.98;74.91;99563.13;5093251;28;20565;-79
2021/04/17 03:09:28;;;;;;;11.95;7.78;;;;;;;2.93;75.26;99568.00;5093063;28;20431;-80
2021/04/17 03:11:54;;;;;;;15.05;9.07;;;;;;;3.01;75.34;99584.34;5091595;28;20055;-80
2021/04/17 03:14:21;;;;;;;16.63;10.18;;;;;;;3.03;74.78;99578.84;5072489;28;20408;-79
2021/04/17 03:16:47;;;;;;;14.93;9.10;;;;;;;3.06;74.25;99592.03;5072883;28;20468;-79
2021/04/17 03:19:13;;;;;;;16.83;9.95;;;;;;;3.08;74.57;99576.63;5072599;28;20102;-80
2021/04/17 03:21:40;;;;;;;18.73;9.65;;;;;;;3.05;74.46;99581.41;5072712;28;20048;-79
2021/04/17 03:24:06;;;;;;;15.40;9.10;;;;;;;3.10;73.82;99581.88;5072553;28;20105;-80
2021/04/17 03:26:34;;;;;;;14.10;9.10;;;;;;;3.03;74.64;99583.34;5072504;28;20041;-80
2021/04/17 03:29:00;;;;;;;14.15;9.32;;;;;;;3.10;74.60;99572.00;5072649;28;20052;-79
2021/04/17 03:31:26;;;;;;;14.85;9.20;;;;;;;3.07;74.60;99563.31;5076470;28;20051;-79
2021/04/17 03:33:53;;;;;;;14.57;8.70;;;;;;;2.98;73.68;99562.25;5092133;28;20484;-79
2021/04/17 03:36:19;;;;;;;14.57;8.35;;;;;;;3.05;74.95;99576.88;5077381;28;20048;-79
2021/04/17 03:38:46;;;;;;;14.23;9.32;;;;;;;3.01;75.30;99579.00;5072749;28;20048;-79
2021/04/17 03:41:12;;;;;;;15.13;8.23;;;;;;;2.93;75.67;99569.84;5082780;28;20514;-79
2021/04/17 03:43:39;;;;;;;19.20;10.60;;;;;;;2.95;75.76;99578.63;5092762;28;20055;-79
2021/04/17 03:46:06;;;;;;;14.45;9.02;;;;;;;2.82;75.64;99573.41;5091996;28;20385;-79
2021/04/17 03:48:32;;;;;;;14.20;8.70;;;;;;;2.82;76.13;99578.78;5083994;28;20558;-80
2021/04/17 03:50:59;;;;;;;13.07;8.70;;;;;;;2.72;76.46;99583.19;5072169;28;20044;-80
2021/04/17 03:53:25;;;;;;;13.80;8.93;;;;;;;2.55;76.33;99573.84;5075105;28;20507;-80
2021/04/17 03:55:51;;;;;;;15.80;9.00;;;;;;;2.70;75.89;99577.94;5091798;28;20048;-79
2021/04/17 03:58:17;;;;;;;15.80;8.48;;;;;;;2.63;76.77;99579.41;5091997;28;20499;-79
2021/04/17 04:00:44;;;;;;;15.65;8.77;;;;;;;2.63;76.67;99582.09;5075599;28;20052;-80
2021/04/17 04:03:11;;;;;;;12.85;8.63;;;;;;;2.52;77.06;99582.97;5072579;28;20056;-79
2021/04/17 04:05:40;;;;;;;12.68;8.73;;;;;;;2.46;76.71;99583.47;5071476;28;20496;-79
2021/04/17 04:08:06;;;;;;;12.55;8.10;;;;;;;2.41;76.89;99591.88;5072150;28;20454;-79
2021/04/17 04:10:32;;;;;;;16.60;8.80;;;;;;;2.37;76.76;99574.31;5070192;28;20072;-78
2021/04/17 04:12:58;;;;;;;14.82;9.07;;;;;;;2.36;76.89;99583.34;5071579;28;20053;-79
2021/04/17 04:15:25;;;;;;;14.43;8.68;;;;;;;2.37;76.43;99594.94;5070906;28;20051;-79
2021/04/17 04:17:52;;;;;;;15.57;8.57;;;;;;;2.30;76.87;99587.38;5075386;28;20076;-79
2021/04/17 04:20:18;;;;;;;11.27;8.40;;;;;;;2.26;76.76;99585.91;5086608;28;20121;-79
2021/04/17 04:22:44;;;;;;;12.27;7.80;;;;;;;2.24;76.76;99601.28;5095966;28;20060;-79
2021/04/17 04:25:11;;;;;;;15.27;7.63;;;;;;;2.16;76.66;99584.06;5095148;28;20067;-79
2021/04/17 04:27:38;;;;;;;14.07;8.18;;;;;;;2.14;76.67;99592.25;5095789;28;20048;-80
2021/04/17 04:30:07;;;;;;;24.67;9.10;;;;;;;2.15;76.45;99598.47;5095940;28;20044;-80
2021/04/17 04:32:33;;;;;;;11.82;7.80;;;;;;;2.01;76.83;99597.69;5053592;28;20060;-80
2021/04/17 04:35:00;;;;;;;14.55;8.63;;;;;;;1.92;77.92;99601.09;5053648;28;20057;-80
2021/04/17 04:37:27;;;;;;;13.45;8.23;;;;;;;1.82;77.15;99595.59;5068456;28;20101;-80
2021/04/17 04:40:01;;;;;;;13.25;8.00;;;;;;;1.65;77.44;99579.97;5094766;28;20067;-79
2021/04/17 04:42:31;;;;;;;14.13;8.10;;;;;;;1.70;77.91;99605.44;5095689;28;20160;-80
2021/04/17 04:45:01;;;;;;;13.63;8.80;;;;;;;1.64;77.32;99603.25;5080829;28;20052;-80
2021/04/17 04:47:27;;;;;;;13.52;8.73;;;;;;;1.64;77.64;99605.03;5075192;28;20079;-80
2021/04/17 04:49:53;;;;;;;13.68;8.55;;;;;;;1.71;77.53;99611.66;5075290;28;20048;-80
2021/04/17 04:52:21;;;;;;;14.18;7.82;;;;;;;1.65;77.05;99598.72;5075468;28;20048;-79
2021/04/17 04:54:47;;;;;;;12.52;7.85;;;;;;;1.61;77.93;99613.31;5074368;28;20472;-79
2021/04/17 04:57:13;;;;;;;15.77;8.70;;;;;;;1.62;77.69;99615.88;5075192;28;20064;-79
2021/04/17 04:59:39;;;;;;;11.25;6.85;;;;;;;1.54;78.18;99612.94;5075237;28;20125;-80
2021/04/17 05:02:05;;;;;;;11.85;7.32;;;;;;;1.62;78.47;99617.72;5075193;28;20056;-79
2021/04/17 05:04:32;;;;;;;12.07;7.47;;;;;;;1.40;78.40;99595.22;5074282;28;20565;-80
2021/04/17 05:06:58;;;;;;;13.97;8.20;;;;;;;1.50;79.03;99616.81;5074948;28;20052;-79
2021/04/17 05:09:28;;;;;;;12.20;7.70;;;;;;;1.46;79.82;99605.50;5074831;28;20507;-79
2021/04/17 05:11:54;;;;;;;12.73;7.97;;;;;;;1.48;79.28;99600.00;5073228;28;20084;-79
2021/04/17 05:14:22;;;;;;;11.63;8.27;;;;;;;1.67;79.10;99615.53;5077717;28;20048;-79
2021/04/17 05:16:48;;;;;;;15.73;8.13;;;;;;;1.79;78.41;99616.44;5094776;28;20055;-79
2021/04/17 05:19:14;;;;;;;12.45;8.77;;;;;;;1.92;78.28;99615.34;5094649;28;20063;-80
2021/04/17 05:21:45;;;;;;;13.15;8.70;;;;;;;1.93;78.91;99610.88;5094442;28;20044;-80
2021/04/17 05:24:11;;;;;;;11.13;8.02;;;;;;;1.90;78.77;99609.28;5075482;28;20105;-80
2021/04/17 05:26:38;;;;;;;13.23;8.50;;;;;;;1.93;78.84;99613.53;5074777;28;20060;-80
2021/04/17 05:29:05;;;;;;;12.13;8.75;;;;;;;2.04;78.75;99618.06;5074449;28;20049;-80
2021/04/17 05:31:32;;;;;;;14.10;8.82;;;;;;;2.05;79.00;99611.75;5074200;28;20094;-80
2021/04/17 05:33:58;;;;;;;15.27;8.57;;;;;;;2.15;78.18;99606.50;5074687;28;20056;-80
2021/04/17 05:36:24;;;;;;;16.73;9.85;;;;;;;2.28;78.09;99602.72;5059830;28;20050;-80
2021/04/17 05:38:53;;;;;;;17.20;8.90;;;;;;;2.41;77.61;99612.47;5076805;28;20043;-80
2021/04/17 05:41:21;;;;;;;14.80;8.27;;;;;;;2.29;78.03;99609.81;5092758;28;20503;-80
2021/04/17 05:43:48;;;;;;;26.40;14.70;;;;;;;2.47;77.56;99606.66;5092675;28;20560;-80
2021/04/17 05:46:14;;;;;;;12.25;8.55;;;;;;;2.43;77.88;99597.97;5083904;28;20048;-80
2021/04/17 05:48:40;;;;;;;14.82;8.70;;;;;;;2.46;78.60;99605.78;5056545;28;20102;-80
2021/04/17 05:51:07;;;;;;;14.32;8.75;;;;;;;2.44;78.51;99606.91;5071424;28;20033;-81
2021/04/17 05:53:33;;;;;;;15.15;8.82;;;;;;;2.55;78.53;99606.88;5070592;28;20083;-80
2021/04/17 05:56:01;;;;;;;12.48;8.80;;;;;;;2.65;78.00;99610.53;5071533;28;20049;-80
2021/04/17 05:58:31;;;;;;;17.58;9.63;;;;;;;2.80;77.29;99599.53;5082683;28;20091;-80
2021/04/17 06:00:58;;;;;;;18.20;10.18;;;;;;;2.85;77.62;99604.53;5072091;28;20048;-79
2021/04/17 06:03:25;;;;;;;16.20;9.40;;;;;;;2.86;77.14;99609.78;5071887;28;20040;-79
2021/04/17 06:05:51;;;;;;;14.93;8.85;;;;;;;2.85;77.26;99616.13;5086868;28;20044;-79
2021/04/17 06:08:18;;;;;;;16.33;8.63;;;;;;;2.71;78.33;99622.63;5090990;28;20404;-79
2021/04/17 06:10:52;;;;;;;16.83;10.07;;;;;;;2.68;77.34;99620.19;5073764;28;20105;-80
2021/04/17 06:13:18;;;;;;;16.65;10.25;;;;;;;2.76;76.88;99617.72;5088325;28;20044;-80
2021/04/17 06:15:44;;;;;;;14.63;9.20;;;;;;;2.87;76.97;99626.75;5080264;28;20086;-79
2021/04/17 06:18:12;;;;;;;17.65;9.90;;;;;;;3.01;76.33;99621.09;5091430;28;20052;-80
2021/04/17 06:20:38;;;;;;;25.52;11.70;;;;;;;3.05;76.05;99621.72;5088108;28;20556;-79
2021/04/17 06:23:10;;;;;;;14.52;9.90;;;;;;;3.09;75.82;99617.81;5071366;28;20500;-80
2021/04/17 06:25:36;;;;;;;14.88;9.95;;;;;;;3.24;74.97;99612.97;5083952;28;20052;-80
2021/04/17 06:28:03;;;;;;;15.75;10.25;;;;;;;3.36;75.00;99628.94;5074091;28;20263;-80
2021/04/17 06:30:30;;;;;;;15.52;10.30;;;;;;;3.47;73.92;99608.38;5071468;28;20056;-80
2021/04/17 06:32:56;;;;;;;19.30;11.40;;;;;;;3.66;73.38;99632.75;5071406;28;20060;-80
2021/04/17 06:35:23;;;;;;;17.58;10.88;;;;;;;3.84;72.57;99613.31;5077153;28;20048;-80
2021/04/17 06:37:49;;;;;;;20.30;10.07;;;;;;;3.83;72.26;99608.94;5086605;28;20052;-80
2021/04/17 06:40:16;;;;;;;15.52;10.32;;;;;;;4.09;70.75;99628.22;5074634;28;20537;-80
2021/04/17 06:42:45;;;;;;;17.23;10.40;;;;;;;4.22;71.66;99619.97;5071558;28;20066;-80
2021/04/17 06:45:13;;;;;;;16.02;9.57;;;;;;;4.49;70.94;99615.84;5089801;28;20095;-80
2021/04/17 06:47:42;;;;;;;17.08;9.77;;;;;;;4.53;70.61;99619.97;5090973;28;20047;-80
2021/04/17 06:50:09;;;;;;;16.30;10.20;;;;;;;4.51;70.35;99620.09;5089262;28;20211;-79
2021/04/17 06:52:38;;;;;;;17.90;9.85;;;;;;;4.55;70.05;99607.22;5074991;28;20521;-79
2021/04/17 06:55:06;;;;;;;15.63;9.77;;;;;;;4.76;70.19;99596.41;5072469;28;20408;-82
2021/04/17 06:57:32;;;;;;;15.48;9.85;;;;;;;4.84;69.79;99601.94;5071213;28;20110;-80
2021/04/17 07:00:01;;;;;;;16.75;9.55;;;;;;;4.85;69.46;99603.66;5073024;28;20114;-80
2021/04/17 07:02:27;;;;;;;16.08;10.27;;;;;;;5.21;68.98;99604.00;5076863;28;20091;-80
2021/04/17 07:04:54;;;;;;;15.25;9.68;;;;;;;5.49;67.85;99591.56;5089924;28;20088;-80
2021/04/17 07:07:20;;;;;;;23.75;9.80;;;;;;;5.21;68.69;99595.06;5054016;28;20048;-80
2021/04/17 07:09:49;;;;;;;18.42;10.35;;;;;;;5.53;69.36;99597.50;5085225;28;20105;-80
2021/04/17 07:12:16;;;;;;;24.88;10.55;;;;;;;5.61;67.90;99586.00;5065728;28;20049;-80
2021/04/17 07:14:44;;;;;;;16.75;9.65;;;;;;;5.80;68.07;99587.84;5059709;28;20477;-80
2021/04/17 07:17:10;;;;;;;16.88;9.32;;;;;;;5.76;66.84;99594.50;5070399;28;20055;-80
2021/04/17 07:19:49;;;;;;;9.68;7.00;;;;;;;5.65;66.16;99595.50;5070354;28;20059;-80
2021/04/17 07:22:36;;;;;;;12.48;8.63;;;;;;;5.92;64.68;99583.97;5071563;28;20048;-80
2021/04/17 07:25:21;;;;;;;12.23;8.80;;;;;;;5.80;63.53;99580.59;5075644;28;20526;-82
2021/04/17 07:27:48;;;;;;;14.80;7.68;;;;;;;5.71;64.28;99584.16;5092917;28;20138;-82
2021/04/17 07:30:32;;;;;;;16.63;8.13;;;;;;;5.59;64.57;99593.38;5088415;28;20052;-82
2021/04/17 07:33:14;;;;;;;14.38;8.45;;;;;;;5.87;63.98;99588.94;5069982;28;20094;-82
2021/04/17 07:35:43;;;;;;;12.63;7.95;;;;;;;6.39;62.51;99593.97;5070186;28;20117;-82
2021/04/17 07:38:13;;;;;;;11.68;7.75;;;;;;;6.42;61.99;99582.88;5070380;28;20056;-82
2021/04/17 07:40:41;;;;;;;11.55;7.70;;;;;;;6.75;61.23;99591.41;5060886;28;20052;-82
2021/04/17 07:43:17;;;;;;;10.57;7.75;;;;;;;6.95;61.20;99575.09;5090366;28;20093;-82
2021/04/17 07:45:44;;;;;;;13.85;8.07;;;;;;;6.71;60.43;99588.16;5072184;28;20056;-81
2021/04/17 07:48:22;;;;;;;10.85;7.43;;;;;;;6.94;59.60;99582.34;5080417;28;20054;-81
2021/04/17 07:50:49;;;;;;;12.57;7.68;;;;;;;7.06;59.82;99583.84;5091201;28;20055;-82
2021/04/17 07:53:30;;;;;;;11.23;7.43;;;;;;;6.99;59.97;99598.13;5092985;28;20055;-81
2021/04/17 07:56:21;;;;;;;12.48;7.00;;;;;;;6.89;61.35;99598.16;5090385;28;20071;-81
2021/04/17 07:58:48;;;;;;;11.52;7.85;;;;;;;7.34;60.36;99583.78;5093945;28;20048;-81
2021/04/17 08:01:16;;;;;;;14.30;7.55;;;;;;;7.57;59.06;99583.31;5094301;28;20056;-81
2021/04/17 08:03:44;;;;;;;10.63;6.20;;;;;;;7.92;56.28;99576.19;5094502;28;20093;-81
2021/04/17 08:06:11;;;;;;;9.60;6.13;;;;;;;7.65;56.61;99572.56;5093257;28;20475;-81
2021/04/17 08:08:38;;;;;;;11.30;6.25;;;;;;;7.65;56.44;99569.88;5089320;28;20056;-81
2021/04/17 08:11:07;;;;;;;12.05;6.32;;;;;;;7.34;57.19;99569.41;5079456;28;20040;-81
2021/04/17 08:13:34;;;;;;;12.23;5.95;;;;;;;7.33;57.81;99579.41;5093834;28;20352;-82
2021/04/17 08:16:03;;;;;;;10.13;5.78;;;;;;;7.32;57.32;99574.13;5093304;28;20052;-82
2021/04/17 08:18:30;;;;;;;7.88;5.20;;;;;;;7.34;57.55;99575.66;5094450;28;20040;-82
2021/04/17 08:20:59;;;;;;;9.15;5.70;;;;;;;7.48;56.53;99570.72;5075914;28;20054;-81
2021/04/17 08:23:27;;;;;;;10.85;5.38;;;;;;;7.40;57.10;99560.69;5093209;28;20125;-82
2021/04/17 08:25:55;;;;;;;8.93;5.55;;;;;;;7.58;55.69;99568.78;5073046;28;20056;-82
2021/04/17 08:28:25;;;;;;;11.68;6.43;;;;;;;7.50;56.52;99574.09;5088778;28;20101;-83
2021/04/17 08:31:14;;;;;;;9.02;6.53;;;;;;;7.73;57.80;99567.22;5093953;28;20055;-82
2021/04/17 08:33:40;;;;;;;11.70;5.72;;;;;;;7.67;55.21;99556.19;5093464;28;20052;-82
2021/04/17 08:36:06;;;;;;;8.02;5.60;;;;;;;8.01;54.83;99575.22;5093070;28;20059;-83
2021/04/17 08:38:36;;;;;;;8.43;5.32;;;;;;;7.80;54.76;99562.03;5093540;28;20048;-83
2021/04/17 08:41:03;;;;;;;10.05;5.97;;;;;;;8.18;53.38;99576.19;5077364;28;20052;-82
2021/04/17 08:43:42;;;;;;;12.60;5.95;;;;;;;8.25;53.27;99565.53;5074446;28;20546;-82
2021/04/17 08:46:14;;;;;;;9.05;5.00;;;;;;;8.58;53.21;99563.03;5072530;28;20496;-82
2021/04/17 08:48:58;;;;;;;8.38;5.53;;;;;;;8.43;53.81;99565.47;5079301;28;20295;-79
2021/04/17 08:51:33;;;;;;;8.02;4.93;;;;;;;8.20;53.48;99562.47;5096532;28;20071;-79
2021/04/17 08:54:15;;;;;;;8.30;5.32;;;;;;;8.26;54.14;99561.84;5093059;28;20040;-77
2021/04/17 08:56:57;;;;;;;7.53;4.60;;;;;;;8.23;53.83;99556.75;5087625;28;20053;-79
2021/04/17 08:59:32;;;;;;;6.88;4.43;;;;;;;8.30;53.67;99560.50;5076000;28;20078;-78
2021/04/17 09:02:02;;;;;;;9.05;4.65;;;;;;;8.19;52.64;99561.63;5092283;28;20051;-78
2021/04/17 09:04:30;;;;;;;8.73;4.75;;;;;;;8.22;52.55;99550.47;5092320;28;20496;-78
2021/04/17 09:06:58;;;;;;;8.15;4.63;;;;;;;8.26;53.09;99557.25;5092251;28;20044;-78
2021/04/17 09:09:30;;;;;;;11.32;4.38;;;;;;;7.94;53.22;99545.22;5092747;28;20044;-78
2021/04/17 09:12:15;;;;;;;7.85;3.78;;;;;;;8.02;53.58;99552.53;5088639;28;20075;-78
2021/04/17 09:14:55;;;;;;;6.90;4.28;;;;;;;8.07;53.69;99552.94;5091375;28;20055;-78
2021/04/17 09:17:38;;;;;;;9.50;4.20;;;;;;;8.30;52.62;99544.25;5093200;28;20048;-78
2021/04/17 09:20:07;;;;;;;11.73;5.07;;;;;;;8.48;51.77;99542.34;5092349;28;20574;-78
2021/04/17 09:22:44;;;;;;;6.82;3.83;;;;;;;8.48;51.01;99536.09;5092867;28;20056;-78
2021/04/17 09:25:12;;;;;;;8.23;3.95;;;;;;;8.38;50.42;99538.88;5091619;28;20393;-77
2021/04/17 09:27:43;;;;;;;6.82;3.70;;;;;;;8.49;50.94;99537.75;5092530;28;20443;-77
2021/04/17 09:30:12;;;;;;;4.22;3.08;;;;;;;8.63;51.95;99528.19;5083865;28;20480;-78
2021/04/17 09:32:41;;;;;;;7.43;3.22;;;;;;;8.45;49.75;99531.00;5092608;28;20044;-78
2021/04/17 09:35:16;;;;;;;4.22;2.90;;;;;;;8.37;51.53;99529.06;5091492;28;20567;-78
2021/04/17 09:37:44;;;;;;;5.55;3.30;;;;;;;8.39;50.11;99515.34;5092520;28;20048;-78
2021/04/17 09:40:11;;;;;;;4.95;3.47;;;;;;;8.49;50.39;99524.22;5091874;28;20565;-78
2021/04/17 09:42:38;;;;;;;7.85;3.38;;;;;;;8.52;50.44;99525.75;5077383;28;20385;-78
2021/04/17 09:45:07;;;;;;;9.52;3.17;;;;;;;8.58;49.40;99520.56;5067071;28;20052;-78
2021/04/17 09:47:34;;;;;;;7.97;3.97;;;;;;;8.78;49.85;99520.28;5066008;28;20503;-78
2021/04/17 09:50:02;;;;;;;5.82;3.20;;;;;;;8.83;49.99;99497.06;5073985;28;20094;-78
2021/04/17 09:52:28;;;;;;;9.85;3.42;;;;;;;9.05;49.71;99508.31;5088385;28;20488;-78
2021/04/17 09:55:00;;;;;;;4.97;3.22;;;;;;;9.12;48.80;99500.34;5071230;28;20052;-77
2021/04/17 09:57:28;;;;;;;9.05;3.47;;;;;;;9.23;50.39;99496.47;5073759;28;20079;-78
2021/04/17 09:59:55;;;;;;;7.03;4.03;;;;;;;9.37;47.66;99502.06;5090335;28;20051;-77
2021/04/17 10:02:22;;;;;;;5.78;3.40;;;;;;;9.42;50.73;99493.41;5051542;28;20471;-77
2021/04/17 10:04:53;;;;;;;10.93;4.10;;;;;;;9.56;47.43;99484.59;5079449;28;20055;-77
2021/04/17 10:07:19;;;;;;;;;;;;;;;9.93;47.29;99482.34;5092186;28;20054;-78
2021/04/17 10:10:00;;;;;;;4.93;3.17;;;;;;;9.71;46.73;99483.91;5091201;28;20368;-78
2021/04/17 10:12:26;;;;;;;7.07;3.63;;;;;;;9.60;47.42;99481.53;5090424;28;20109;-78
2021/04/17 10:14:53;;;;;;;8.93;3.17;;;;;;;9.68;46.06;99476.97;5082181;28;20378;-78
2021/04/17 10:17:19;;;;;;;6.63;2.70;;;;;;;9.65;44.04;99476.44;5070951;28;20052;-77
2021/04/17 10:19:46;;;;;;;2.78;1.48;;;;;;;9.46;42.79;99478.50;5071704;28;20431;-79
2021/04/17 10:22:13;;;;;;;10.48;3.10;;;;;;;9.57;46.22;99463.72;5090997;28;20055;-78
2021/04/17 10:24:41;;;;;;;6.45;2.50;;;;;;;9.86;44.73;99465.91;5077999;28;20051;-78
2021/04/17 10:27:10;;;;;;;3.60;2.22;;;;;;;9.80;41.78;99469.31;5071390;28;20110;-78
2021/04/17 10:29:42;;;;;;;3.13;1.80;;;;;;;9.76;42.58;99473.38;5079150;28;20143;-78
2021/04/17 10:32:15;;;;;;;3.55;2.45;;;;;;;10.05;43.64;99477.41;5084521;28;20393;-78
2021/04/17 10:34:43;;;;;;;7.70;2.53;;;;;;;9.62;44.16;99479.50;5069393;28;20045;-78
2021/04/17 10:37:12;;;;;;;4.60;2.53;;;;;;;9.74;43.54;99464.56;5080475;28;20048;-78
2021/04/17 10:39:57;;;;;;;4.03;2.22;;;;;;;9.94;44.01;99462.31;5070641;28;20055;-78
2021/04/17 10:42:24;;;;;;;6.43;2.53;;;;;;;9.91;44.42;99454.53;5071673;28;20055;-78
2021/04/17 10:44:54;;;;;;;5.53;3.10;;;;;;;10.03;43.34;99460.44;5065955;28;20049;-79
2021/04/17 10:47:21;;;;;;;8.00;3.00;;;;;;;10.24;43.71;99462.56;5072580;28;20055;-78
2021/04/17 10:49:47;;;;;;;5.20;2.55;;;;;;;10.08;42.44;99458.88;5086413;28;20457;-78
2021/04/17 10:52:27;;;;;;;11.93;2.42;;;;;;;10.21;43.01;99443.91;5070590;28;20071;-78
2021/04/17 10:54:54;;;;;;;3.63;2.55;;;;;;;9.87;42.08;99451.28;5069978;28;20052;-78
2021/04/17 10:57:21;;;;;;;4.28;2.72;;;;;;;10.23;41.72;99448.13;5090746;28;20058;-78
2021/04/17 10:59:52;;;;;;;4.25;2.30;;;;;;;10.28;42.53;99445.75;5087748;28;20045;-78
2021/04/17 11:02:24;;;;;;;3.85;2.40;;;;;;;10.68;40.60;99443.03;5070346;28;20123;-78
2021/04/17 11:04:50;;;;;;;4.45;2.20;;;;;;;10.71;40.27;99430.94;5069880;28;20052;-78
2021/04/17 11:07:17;;;;;;;3.00;2.10;;;;;;;11.02;39.60;99435.50;5080194;28;20040;-79
2021/04/17 11:09:47;;;;;;;10.57;2.42;;;;;;;10.69;40.16;99435.69;5070616;28;20059;-79
2021/04/17 11:12:28;;;;;;;3.17;2.03;;;;;;;10.55;38.09;99426.44;5069397;28;20049;-78
2021/04/17 11:15:13;;;;;;;5.30;2.40;;;;;;;10.28;38.87;99434.00;5069931;28;20059;-78
2021/04/17 11:17:39;;;;;;;4.15;1.98;;;;;;;10.39;39.84;99420.06;5082918;28;20102;-78
2021/04/17 11:20:17;;;;;;;2.58;1.90;;;;;;;10.42;38.92;99424.31;5089716;28;20044;-78
2021/04/17 11:22:44;;;;;;;3.00;2.00;;;;;;;10.83;36.66;99415.91;5082009;28;20048;-78
2021/04/17 11:25:11;;;;;;;8.15;1.70;;;;;;;10.76;36.57;99413.06;5069604;28;20196;-78
2021/04/17 11:27:38;;;;;;;2.70;1.70;;;;;;;11.01;37.12;99406.63;5079150;28;20101;-78
2021/04/17 11:30:08;;;;;;;6.32;1.92;;;;;;;11.32;36.48;99409.22;5090781;28;20519;-79
2021/04/17 11:32:35;;;;;;;3.60;2.10;;;;;;;11.24;36.65;99407.41;5084275;28;20051;-78
2021/04/17 11:35:05;;;;;;;9.02;2.35;;;;;;;11.17;38.34;99411.94;5070012;28;20053;-78
2021/04/17 11:37:31;;;;;;;6.25;2.30;;;;;;;11.47;34.76;99404.69;5070722;28;20052;-78
2021/04/17 11:39:58;;;;;;;4.50;2.40;;;;;;;11.50;36.42;99398.00;5061905;28;20045;-79
2021/04/17 11:42:24;;;;;;;2.10;1.35;;;;;;;11.30;36.88;99398.50;5032717;28;20063;-78
2021/04/17 11:44:53;;;;;;;3.60;2.17;;;;;;;11.22;37.12;99404.03;5072620;28;20400;-79